PWSweather.com
Personal Weather Stations
Station Observations
DW1039
Liberty & Fairfield Townships, Hamilton, OH 45011

Liberty & Fairfield TownshipsHamilton, OH 45011

Lat: 39.3933, Lon: -84.477

Elevation: 780

Station Type: Davis Vantage Pro2 (Daytime Fan Aspirated)

http://www.lfweathercenter.com/

High Low Average
Temperature 32.9°F0.5°F 21.6°F-5.8°F 26.3°F-3.2°F
Dew Point 23.0°F-5.0°F 14.2°F-9.9°F 17.1°F-8.3°F
Winds 16.0 mph W25.7 mph W Calm Calm 4.9 mph 7.9 mph
Wind Gusts 21.0 mph33.8 mph -- 10.7 mph17.2 mph
Humidity 78% 56% 68%
Pressure 30.33 in1027.10 in 30.12 in1020.00 in -
Precipitation 0.00 in0.00 in - -
Hour Temp Dew Point Humidity Winds Wind Gusts Pressure Precip Precip Rate Daily Precip Total
12:00 AM 30.3°F-0.9°C 23.0°F-5.0°C 74% 4.0 mph WNW6.4 kmh WNW 14.0 mph22.5 kmh 30.12 in1020.0 mb 0.00 in0.0 mm 0.00 in/hr0.0 mm/hr 0.00 in0.0 mm
12:10 AM 29.9°F-1.2°C 22.3°F-5.4°C 73% 9.0 mph WSW14.5 kmh WSW 15.0 mph24.1 kmh 30.12 in1020.0 mb 0.00 in0.0 mm 0.00 in/hr0.0 mm/hr 0.00 in0.0 mm
12:20 AM 29.5°F-1.4°C 21.6°F-5.8°C 72% 6.0 mph WSW9.7 kmh WSW 16.0 mph25.7 kmh 30.12 in1020.0 mb 0.00 in0.0 mm 0.00 in/hr0.0 mm/hr 0.00 in0.0 mm
12:30 AM 29.2°F-1.6°C 21.3°F-5.9°C 72% 7.0 mph WSW11.3 kmh WSW 13.0 mph20.9 kmh 30.13 in1020.3 mb 0.00 in0.0 mm 0.00 in/hr0.0 mm/hr 0.00 in0.0 mm
12:40 AM 28.6°F-1.9°C 20.7°F-6.3°C 72% 7.0 mph W11.3 kmh W 11.0 mph17.7 kmh 30.13 in1020.3 mb 0.00 in0.0 mm 0.00 in/hr0.0 mm/hr 0.00 in0.0 mm
12:50 AM 27.9°F-2.3°C 20.1°F-6.6°C 72% 5.0 mph NW8.0 kmh NW 14.0 mph22.5 kmh 30.13 in1020.3 mb 0.00 in0.0 mm 0.00 in/hr0.0 mm/hr 0.00 in0.0 mm
01:00 AM 27.3°F-2.6°C 19.2°F-7.1°C 71% 6.0 mph WSW9.7 kmh WSW 12.0 mph19.3 kmh 30.14 in1020.7 mb 0.00 in0.0 mm 0.00 in/hr0.0 mm/hr 0.00 in0.0 mm
01:10 AM 26.4°F-3.1°C 18.3°F-7.6°C 71% 6.0 mph WNW9.7 kmh WNW 14.0 mph22.5 kmh 30.14 in1020.7 mb 0.00 in0.0 mm 0.00 in/hr0.0 mm/hr 0.00 in0.0 mm
01:20 AM 25.7°F-3.5°C 17.9°F-7.8°C 72% 4.0 mph NW6.4 kmh NW 12.0 mph19.3 kmh 30.14 in1020.7 mb 0.00 in0.0 mm 0.00 in/hr0.0 mm/hr 0.00 in0.0 mm
01:30 AM 25.3°F-3.7°C 17.6°F-8.0°C 72% 10.0 mph WNW16.1 kmh WNW 10.0 mph16.1 kmh 30.14 in1020.7 mb 0.00 in0.0 mm 0.00 in/hr0.0 mm/hr 0.00 in0.0 mm
01:40 AM 25.1°F-3.8°C 17.7°F-7.9°C 73% 1.0 mph WSW1.6 kmh WSW 9.0 mph14.5 kmh 30.14 in1020.7 mb 0.00 in0.0 mm 0.00 in/hr0.0 mm/hr 0.00 in0.0 mm
01:50 AM 24.8°F-4.0°C 17.4°F-8.1°C 73% 1.0 mph NW1.6 kmh NW 9.0 mph14.5 kmh 30.15 in1021.0 mb 0.00 in0.0 mm 0.00 in/hr0.0 mm/hr 0.00 in0.0 mm
02:00 AM 24.6°F-4.1°C 17.2°F-8.2°C 73% 2.0 mph W3.2 kmh W 12.0 mph19.3 kmh 30.14 in1020.7 mb 0.00 in0.0 mm 0.00 in/hr0.0 mm/hr 0.00 in0.0 mm
02:10 AM 24.5°F-4.2°C 17.1°F-8.3°C 73% 4.0 mph W6.4 kmh W 13.0 mph20.9 kmh 30.14 in1020.7 mb 0.00 in0.0 mm 0.00 in/hr0.0 mm/hr 0.00 in0.0 mm
02:20 AM 24.4°F-4.2°C 17.0°F-8.3°C 73% 11.0 mph WSW17.7 kmh WSW 13.0 mph20.9 kmh 30.15 in1021.0 mb 0.00 in0.0 mm 0.00 in/hr0.0 mm/hr 0.00 in0.0 mm
02:30 AM 24.4°F-4.2°C 17.0°F-8.3°C 73% 4.0 mph WSW6.4 kmh WSW 11.0 mph17.7 kmh 30.14 in1020.7 mb 0.00 in0.0 mm 0.00 in/hr0.0 mm/hr 0.00 in0.0 mm
02:40 AM 24.6°F-4.1°C 17.2°F-8.2°C 73% 9.0 mph WNW14.5 kmh WNW 12.0 mph19.3 kmh 30.15 in1021.0 mb 0.00 in0.0 mm 0.00 in/hr0.0 mm/hr 0.00 in0.0 mm
02:50 AM 24.8°F-4.0°C 17.7°F-7.9°C 74% 9.0 mph W14.5 kmh W 15.0 mph24.1 kmh 30.15 in1021.0 mb 0.00 in0.0 mm 0.00 in/hr0.0 mm/hr 0.00 in0.0 mm
03:00 AM 24.8°F-4.0°C 17.7°F-7.9°C 74% Calm Calm 7.0 mph11.3 kmh 30.15 in1021.0 mb 0.00 in0.0 mm 0.00 in/hr0.0 mm/hr 0.00 in0.0 mm
03:10 AM 24.8°F-4.0°C 17.7°F-7.9°C 74% 2.0 mph WNW3.2 kmh WNW 9.0 mph14.5 kmh 30.15 in1021.0 mb 0.00 in0.0 mm 0.00 in/hr0.0 mm/hr 0.00 in0.0 mm
03:20 AM 24.8°F-4.0°C 17.7°F-7.9°C 74% Calm Calm 4.0 mph6.4 kmh 30.15 in1021.0 mb 0.00 in0.0 mm 0.00 in/hr0.0 mm/hr 0.00 in0.0 mm
03:30 AM 24.8°F-4.0°C 18.0°F-7.8°C 75% 1.0 mph WNW1.6 kmh WNW 3.0 mph4.8 kmh 30.14 in1020.7 mb 0.00 in0.0 mm 0.00 in/hr0.0 mm/hr 0.00 in0.0 mm
03:40 AM 24.9°F-3.9°C 18.1°F-7.7°C 75% 12.0 mph WSW19.3 kmh WSW 12.0 mph19.3 kmh 30.15 in1021.0 mb 0.00 in0.0 mm 0.00 in/hr0.0 mm/hr 0.00 in0.0 mm
03:50 AM 24.8°F-4.0°C 18.0°F-7.8°C 75% 10.0 mph WSW16.1 kmh WSW 13.0 mph20.9 kmh 30.14 in1020.7 mb 0.00 in0.0 mm 0.00 in/hr0.0 mm/hr 0.00 in0.0 mm
04:00 AM 24.8°F-4.0°C 18.0°F-7.8°C 75% 5.0 mph WSW8.0 kmh WSW 10.0 mph16.1 kmh 30.14 in1020.7 mb 0.00 in0.0 mm 0.00 in/hr0.0 mm/hr 0.00 in0.0 mm
04:10 AM 24.8°F-4.0°C 18.0°F-7.8°C 75% 3.0 mph WSW4.8 kmh WSW 8.0 mph12.9 kmh 30.15 in1021.0 mb 0.00 in0.0 mm 0.00 in/hr0.0 mm/hr 0.00 in0.0 mm
04:20 AM 24.7°F-4.1°C 17.9°F-7.8°C 75% 2.0 mph SW3.2 kmh SW 13.0 mph20.9 kmh 30.14 in1020.7 mb 0.00 in0.0 mm 0.00 in/hr0.0 mm/hr 0.00 in0.0 mm
04:30 AM 24.8°F-4.0°C 18.3°F-7.6°C 76% 5.0 mph WSW8.0 kmh WSW 6.0 mph9.7 kmh 30.14 in1020.7 mb 0.00 in0.0 mm 0.00 in/hr0.0 mm/hr 0.00 in0.0 mm
04:40 AM 24.8°F-4.0°C 18.0°F-7.8°C 75% 5.0 mph WSW8.0 kmh WSW 9.0 mph14.5 kmh 30.15 in1021.0 mb 0.00 in0.0 mm 0.00 in/hr0.0 mm/hr 0.00 in0.0 mm
04:50 AM 24.8°F-4.0°C 18.0°F-7.8°C 75% 1.0 mph WSW1.6 kmh WSW 9.0 mph14.5 kmh 30.15 in1021.0 mb 0.00 in0.0 mm 0.00 in/hr0.0 mm/hr 0.00 in0.0 mm
05:00 AM 24.8°F-4.0°C 18.0°F-7.8°C 75% 3.0 mph W4.8 kmh W 7.0 mph11.3 kmh 30.15 in1021.0 mb 0.00 in0.0 mm 0.00 in/hr0.0 mm/hr 0.00 in0.0 mm
05:10 AM 24.8°F-4.0°C 18.0°F-7.8°C 75% 3.0 mph WSW4.8 kmh WSW 10.0 mph16.1 kmh 30.14 in1020.7 mb 0.00 in0.0 mm 0.00 in/hr0.0 mm/hr 0.00 in0.0 mm
05:20 AM 24.9°F-3.9°C 18.1°F-7.7°C 75% 3.0 mph WSW4.8 kmh WSW 9.0 mph14.5 kmh 30.15 in1021.0 mb 0.00 in0.0 mm 0.00 in/hr0.0 mm/hr 0.00 in0.0 mm
05:30 AM 24.8°F-4.0°C 18.0°F-7.8°C 75% 6.0 mph NW9.7 kmh NW 13.0 mph20.9 kmh 30.15 in1021.0 mb 0.00 in0.0 mm 0.00 in/hr0.0 mm/hr 0.00 in0.0 mm
05:40 AM 24.7°F-4.1°C 17.3°F-8.2°C 73% 7.0 mph W11.3 kmh W 11.0 mph17.7 kmh 30.15 in1021.0 mb 0.00 in0.0 mm 0.00 in/hr0.0 mm/hr 0.00 in0.0 mm
05:50 AM 24.7°F-4.1°C 17.0°F-8.3°C 72% 7.0 mph WNW11.3 kmh WNW 12.0 mph19.3 kmh 30.15 in1021.0 mb 0.00 in0.0 mm 0.00 in/hr0.0 mm/hr 0.00 in0.0 mm
06:00 AM 24.6°F-4.1°C 16.9°F-8.4°C 72% 2.0 mph WNW3.2 kmh WNW 7.0 mph11.3 kmh 30.15 in1021.0 mb 0.00 in0.0 mm 0.00 in/hr0.0 mm/hr 0.00 in0.0 mm
06:10 AM 24.5°F-4.2°C 16.8°F-8.4°C 72% 4.0 mph W6.4 kmh W 12.0 mph19.3 kmh 30.15 in1021.0 mb 0.00 in0.0 mm 0.00 in/hr0.0 mm/hr 0.00 in0.0 mm
06:20 AM 24.3°F-4.3°C 16.3°F-8.7°C 71% 9.0 mph WNW14.5 kmh WNW 13.0 mph20.9 kmh 30.16 in1021.3 mb 0.00 in0.0 mm 0.00 in/hr0.0 mm/hr 0.00 in0.0 mm
06:30 AM 24.3°F-4.3°C 15.9°F-8.9°C 70% 7.0 mph W11.3 kmh W 11.0 mph17.7 kmh 30.16 in1021.3 mb 0.00 in0.0 mm 0.00 in/hr0.0 mm/hr 0.00 in0.0 mm
06:40 AM 24.2°F-4.3°C 15.8°F-9.0°C 70% 8.0 mph W12.9 kmh W 17.0 mph27.4 kmh 30.16 in1021.3 mb 0.00 in0.0 mm 0.00 in/hr0.0 mm/hr 0.00 in0.0 mm
06:50 AM 23.9°F-4.5°C 14.9°F-9.5°C 68% 13.0 mph WSW20.9 kmh WSW 14.0 mph22.5 kmh 30.17 in1021.7 mb 0.00 in0.0 mm 0.00 in/hr0.0 mm/hr 0.00 in0.0 mm
07:00 AM 23.4°F-4.8°C 14.4°F-9.8°C 68% 9.0 mph W14.5 kmh W 11.0 mph17.7 kmh 30.17 in1021.7 mb 0.00 in0.0 mm 0.00 in/hr0.0 mm/hr 0.00 in0.0 mm
07:10 AM 23.2°F-4.9°C 14.2°F-9.9°C 68% 4.0 mph W6.4 kmh W 11.0 mph17.7 kmh 30.17 in1021.7 mb 0.00 in0.0 mm 0.00 in/hr0.0 mm/hr 0.00 in0.0 mm
07:20 AM 23.3°F-4.8°C 14.3°F-9.8°C 68% 4.0 mph W6.4 kmh W 13.0 mph20.9 kmh 30.18 in1022.0 mb 0.00 in0.0 mm 0.00 in/hr0.0 mm/hr 0.00 in0.0 mm
07:30 AM 23.2°F-4.9°C 14.2°F-9.9°C 68% 7.0 mph W11.3 kmh W 12.0 mph19.3 kmh 30.18 in1022.0 mb 0.00 in0.0 mm 0.00 in/hr0.0 mm/hr 0.00 in0.0 mm
07:40 AM 23.0°F-5.0°C 14.4°F-9.8°C 69% 3.0 mph W4.8 kmh W 7.0 mph11.3 kmh 30.18 in1022.0 mb 0.00 in0.0 mm 0.00 in/hr0.0 mm/hr 0.00 in0.0 mm
07:50 AM 22.9°F-5.1°C 14.3°F-9.8°C 69% 4.0 mph W6.4 kmh W 10.0 mph16.1 kmh 30.18 in1022.0 mb 0.00 in0.0 mm 0.00 in/hr0.0 mm/hr 0.00 in0.0 mm
08:00 AM 22.9°F-5.1°C 14.3°F-9.8°C 69% 5.0 mph W8.0 kmh W 10.0 mph16.1 kmh 30.19 in1022.4 mb 0.00 in0.0 mm 0.00 in/hr0.0 mm/hr 0.00 in0.0 mm
08:10 AM 22.8°F-5.1°C 14.2°F-9.9°C 69% 4.0 mph W6.4 kmh W 12.0 mph19.3 kmh 30.19 in1022.4 mb 0.00 in0.0 mm 0.00 in/hr0.0 mm/hr 0.00 in0.0 mm
08:20 AM 22.7°F-5.2°C 14.4°F-9.8°C 70% 4.0 mph WSW6.4 kmh WSW 9.0 mph14.5 kmh 30.20 in1022.7 mb 0.00 in0.0 mm 0.00 in/hr0.0 mm/hr 0.00 in0.0 mm
08:30 AM 23.0°F-5.0°C 14.7°F-9.6°C 70% 10.0 mph WSW16.1 kmh WSW 11.0 mph17.7 kmh 30.20 in1022.7 mb 0.00 in0.0 mm 0.00 in/hr0.0 mm/hr 0.00 in0.0 mm
08:40 AM 23.4°F-4.8°C 14.8°F-9.6°C 69% 6.0 mph WSW9.7 kmh WSW 12.0 mph19.3 kmh 30.20 in1022.7 mb 0.00 in0.0 mm 0.00 in/hr0.0 mm/hr 0.00 in0.0 mm
08:50 AM 23.6°F-4.7°C 14.9°F-9.5°C 69% 12.0 mph SW19.3 kmh SW 14.0 mph22.5 kmh 30.20 in1022.7 mb 0.00 in0.0 mm 0.00 in/hr0.0 mm/hr 0.00 in0.0 mm
09:00 AM 24.0°F-4.4°C 15.3°F-9.3°C 69% 4.0 mph W6.4 kmh W 15.0 mph24.1 kmh 30.20 in1022.7 mb 0.00 in0.0 mm 0.00 in/hr0.0 mm/hr 0.00 in0.0 mm
09:10 AM 24.2°F-4.3°C 15.5°F-9.2°C 69% 4.0 mph W6.4 kmh W 14.0 mph22.5 kmh 30.20 in1022.7 mb 0.00 in0.0 mm 0.00 in/hr0.0 mm/hr 0.00 in0.0 mm
09:20 AM 24.5°F-4.2°C 15.5°F-9.2°C 68% 3.0 mph WNW4.8 kmh WNW 13.0 mph20.9 kmh 30.21 in1023.0 mb 0.00 in0.0 mm 0.00 in/hr0.0 mm/hr 0.00 in0.0 mm
09:30 AM 24.7°F-4.1°C 15.7°F-9.1°C 68% 4.0 mph W6.4 kmh W 16.0 mph25.7 kmh 30.21 in1023.0 mb 0.00 in0.0 mm 0.00 in/hr0.0 mm/hr 0.00 in0.0 mm
09:40 AM 25.0°F-3.9°C 16.0°F-8.9°C 68% 5.0 mph W8.0 kmh W 16.0 mph25.7 kmh 30.22 in1023.4 mb 0.00 in0.0 mm 0.00 in/hr0.0 mm/hr 0.00 in0.0 mm
09:50 AM 25.3°F-3.7°C 16.2°F-8.8°C 68% 8.0 mph WSW12.9 kmh WSW 14.0 mph22.5 kmh 30.22 in1023.4 mb 0.00 in0.0 mm 0.00 in/hr0.0 mm/hr 0.00 in0.0 mm
10:00 AM 25.3°F-3.7°C 15.9°F-8.9°C 67% 16.0 mph W25.7 kmh W 19.0 mph30.6 kmh 30.22 in1023.4 mb 0.00 in0.0 mm 0.00 in/hr0.0 mm/hr 0.00 in0.0 mm
10:10 AM 25.7°F-3.5°C 16.6°F-8.6°C 68% 7.0 mph W11.3 kmh W 14.0 mph22.5 kmh 30.22 in1023.4 mb 0.00 in0.0 mm 0.00 in/hr0.0 mm/hr 0.00 in0.0 mm
10:20 AM 26.1°F-3.3°C 16.3°F-8.7°C 66% 13.0 mph WSW20.9 kmh WSW 18.0 mph29.0 kmh 30.22 in1023.4 mb 0.00 in0.0 mm 0.00 in/hr0.0 mm/hr 0.00 in0.0 mm
10:30 AM 26.3°F-3.2°C 16.9°F-8.4°C 67% 5.0 mph W8.0 kmh W 15.0 mph24.1 kmh 30.22 in1023.4 mb 0.00 in0.0 mm 0.00 in/hr0.0 mm/hr 0.00 in0.0 mm
10:40 AM 27.0°F-2.8°C 17.2°F-8.2°C 66% 9.0 mph W14.5 kmh W 19.0 mph30.6 kmh 30.22 in1023.4 mb 0.00 in0.0 mm 0.00 in/hr0.0 mm/hr 0.00 in0.0 mm
10:50 AM 27.2°F-2.7°C 17.0°F-8.3°C 65% 10.0 mph WSW16.1 kmh WSW 12.0 mph19.3 kmh 30.22 in1023.4 mb 0.00 in0.0 mm 0.00 in/hr0.0 mm/hr 0.00 in0.0 mm
11:00 AM 27.4°F-2.6°C 17.2°F-8.2°C 65% 7.0 mph WSW11.3 kmh WSW 18.0 mph29.0 kmh 30.22 in1023.4 mb 0.00 in0.0 mm 0.00 in/hr0.0 mm/hr 0.00 in0.0 mm
11:10 AM 27.9°F-2.3°C 17.3°F-8.2°C 64% 3.0 mph W4.8 kmh W 15.0 mph24.1 kmh 30.22 in1023.4 mb 0.00 in0.0 mm 0.00 in/hr0.0 mm/hr 0.00 in0.0 mm
11:20 AM 28.3°F-2.1°C 17.3°F-8.2°C 63% 4.0 mph SW6.4 kmh SW 20.0 mph32.2 kmh 30.22 in1023.4 mb 0.00 in0.0 mm 0.00 in/hr0.0 mm/hr 0.00 in0.0 mm
11:30 AM 28.3°F-2.1°C 16.6°F-8.6°C 61% 11.0 mph SW17.7 kmh SW 19.0 mph30.6 kmh 30.22 in1023.4 mb 0.00 in0.0 mm 0.00 in/hr0.0 mm/hr 0.00 in0.0 mm
11:40 AM 28.3°F-2.1°C 16.6°F-8.6°C 61% 13.0 mph SW20.9 kmh SW 16.0 mph25.7 kmh 30.22 in1023.4 mb 0.00 in0.0 mm 0.00 in/hr0.0 mm/hr 0.00 in0.0 mm
11:50 AM 28.6°F-1.9°C 16.9°F-8.4°C 61% 14.0 mph WSW22.5 kmh WSW 19.0 mph30.6 kmh 30.22 in1023.4 mb 0.00 in0.0 mm 0.00 in/hr0.0 mm/hr 0.00 in0.0 mm
12:00 PM 29.1°F-1.6°C 17.3°F-8.2°C 61% 11.0 mph SW17.7 kmh SW 18.0 mph29.0 kmh 30.21 in1023.0 mb 0.00 in0.0 mm 0.00 in/hr0.0 mm/hr 0.00 in0.0 mm
12:10 PM 29.3°F-1.5°C 17.5°F-8.1°C 61% 2.0 mph WSW3.2 kmh WSW 14.0 mph22.5 kmh 30.21 in1023.0 mb 0.00 in0.0 mm 0.00 in/hr0.0 mm/hr 0.00 in0.0 mm
12:20 PM 30.1°F-1.1°C 17.1°F-8.3°C 58% 9.0 mph SW14.5 kmh SW 16.0 mph25.7 kmh 30.20 in1022.7 mb 0.00 in0.0 mm 0.00 in/hr0.0 mm/hr 0.00 in0.0 mm
12:30 PM 30.5°F-0.8°C 17.9°F-7.8°C 59% 10.0 mph SW16.1 kmh SW 18.0 mph29.0 kmh 30.20 in1022.7 mb 0.00 in0.0 mm 0.00 in/hr0.0 mm/hr 0.00 in0.0 mm
12:40 PM 29.9°F-1.2°C 16.5°F-8.6°C 57% 6.0 mph WSW9.7 kmh WSW 16.0 mph25.7 kmh 30.19 in1022.4 mb 0.00 in0.0 mm 0.00 in/hr0.0 mm/hr 0.00 in0.0 mm
12:50 PM 30.2°F-1.0°C 18.0°F-7.8°C 60% 10.0 mph WSW16.1 kmh WSW 15.0 mph24.1 kmh 30.19 in1022.4 mb 0.00 in0.0 mm 0.00 in/hr0.0 mm/hr 0.00 in0.0 mm
01:00 PM 31.8°F-0.1°C 18.7°F-7.4°C 58% 14.0 mph WSW22.5 kmh WSW 20.0 mph32.2 kmh 30.19 in1022.4 mb 0.00 in0.0 mm 0.00 in/hr0.0 mm/hr 0.00 in0.0 mm
01:10 PM 32.1°F0.1°C 18.2°F-7.7°C 56% 8.0 mph WSW12.9 kmh WSW 19.0 mph30.6 kmh 30.19 in1022.4 mb 0.00 in0.0 mm 0.00 in/hr0.0 mm/hr 0.00 in0.0 mm
01:20 PM 30.7°F-0.7°C 17.3°F-8.2°C 57% 10.0 mph SW16.1 kmh SW 18.0 mph29.0 kmh 30.19 in1022.4 mb 0.00 in0.0 mm 0.00 in/hr0.0 mm/hr 0.00 in0.0 mm
01:30 PM 31.7°F-0.2°C 18.6°F-7.4°C 58% 8.0 mph SW12.9 kmh SW 21.0 mph33.8 kmh 30.18 in1022.0 mb 0.00 in0.0 mm 0.00 in/hr0.0 mm/hr 0.00 in0.0 mm
01:40 PM 32.4°F0.2°C 18.9°F-7.3°C 57% 2.0 mph WSW3.2 kmh WSW 17.0 mph27.4 kmh 30.18 in1022.0 mb 0.00 in0.0 mm 0.00 in/hr0.0 mm/hr 0.00 in0.0 mm
01:50 PM 32.3°F0.2°C 18.4°F-7.6°C 56% 6.0 mph WSW9.7 kmh WSW 15.0 mph24.1 kmh 30.18 in1022.0 mb 0.00 in0.0 mm 0.00 in/hr0.0 mm/hr 0.00 in0.0 mm
02:00 PM 31.9°F-0.1°C 18.4°F-7.6°C 57% 12.0 mph WSW19.3 kmh WSW 17.0 mph27.4 kmh 30.18 in1022.0 mb 0.00 in0.0 mm 0.00 in/hr0.0 mm/hr 0.00 in0.0 mm
02:10 PM 32.9°F0.5°C 19.4°F-7.0°C 57% 7.0 mph WNW11.3 kmh WNW 13.0 mph20.9 kmh 30.18 in1022.0 mb 0.00 in0.0 mm 0.00 in/hr0.0 mm/hr 0.00 in0.0 mm
02:20 PM 32.6°F0.3°C 18.7°F-7.4°C 56% 8.0 mph WSW12.9 kmh WSW 20.0 mph32.2 kmh 30.18 in1022.0 mb 0.00 in0.0 mm 0.00 in/hr0.0 mm/hr 0.00 in0.0 mm
02:30 PM 32.0°F0.0°C 18.5°F-7.5°C 57% 9.0 mph W14.5 kmh W 13.0 mph20.9 kmh 30.18 in1022.0 mb 0.00 in0.0 mm 0.00 in/hr0.0 mm/hr 0.00 in0.0 mm
02:40 PM 32.6°F0.3°C 18.7°F-7.4°C 56% 4.0 mph WSW6.4 kmh WSW 18.0 mph29.0 kmh 30.18 in1022.0 mb 0.00 in0.0 mm 0.00 in/hr0.0 mm/hr 0.00 in0.0 mm
02:50 PM 31.9°F-0.1°C 18.0°F-7.8°C 56% 5.0 mph WSW8.0 kmh WSW 15.0 mph24.1 kmh 30.18 in1022.0 mb 0.00 in0.0 mm 0.00 in/hr0.0 mm/hr 0.00 in0.0 mm
03:00 PM 31.4°F-0.3°C 17.9°F-7.8°C 57% 10.0 mph WSW16.1 kmh WSW 15.0 mph24.1 kmh 30.19 in1022.4 mb 0.00 in0.0 mm 0.00 in/hr0.0 mm/hr 0.00 in0.0 mm
03:10 PM 31.5°F-0.3°C 18.4°F-7.6°C 58% 7.0 mph SW11.3 kmh SW 16.0 mph25.7 kmh 30.19 in1022.4 mb 0.00 in0.0 mm 0.00 in/hr0.0 mm/hr 0.00 in0.0 mm
03:20 PM 31.7°F-0.2°C 18.6°F-7.4°C 58% 7.0 mph W11.3 kmh W 15.0 mph24.1 kmh 30.18 in1022.0 mb 0.00 in0.0 mm 0.00 in/hr0.0 mm/hr 0.00 in0.0 mm
03:30 PM 31.8°F-0.1°C 17.9°F-7.8°C 56% 8.0 mph SW12.9 kmh SW 18.0 mph29.0 kmh 30.19 in1022.4 mb 0.00 in0.0 mm 0.00 in/hr0.0 mm/hr 0.00 in0.0 mm
03:40 PM 31.4°F-0.3°C 17.9°F-7.8°C 57% 6.0 mph WSW9.7 kmh WSW 15.0 mph24.1 kmh 30.19 in1022.4 mb 0.00 in0.0 mm 0.00 in/hr0.0 mm/hr 0.00 in0.0 mm
03:50 PM 31.4°F-0.3°C 18.4°F-7.6°C 58% 6.0 mph SW9.7 kmh SW 17.0 mph27.4 kmh 30.19 in1022.4 mb 0.00 in0.0 mm 0.00 in/hr0.0 mm/hr 0.00 in0.0 mm
04:00 PM 31.4°F-0.3°C 17.9°F-7.8°C 57% 12.0 mph WSW19.3 kmh WSW 15.0 mph24.1 kmh 30.19 in1022.4 mb 0.00 in0.0 mm 0.00 in/hr0.0 mm/hr 0.00 in0.0 mm
04:10 PM 31.3°F-0.4°C 18.3°F-7.6°C 58% 5.0 mph WSW8.0 kmh WSW 14.0 mph22.5 kmh 30.19 in1022.4 mb 0.00 in0.0 mm 0.00 in/hr0.0 mm/hr 0.00 in0.0 mm
04:20 PM 30.7°F-0.7°C 17.7°F-7.9°C 58% 11.0 mph WSW17.7 kmh WSW 16.0 mph25.7 kmh 30.19 in1022.4 mb 0.00 in0.0 mm 0.00 in/hr0.0 mm/hr 0.00 in0.0 mm
04:30 PM 30.5°F-0.8°C 17.9°F-7.8°C 59% 4.0 mph WSW6.4 kmh WSW 13.0 mph20.9 kmh 30.19 in1022.4 mb 0.00 in0.0 mm 0.00 in/hr0.0 mm/hr 0.00 in0.0 mm
04:40 PM 30.2°F-1.0°C 18.0°F-7.8°C 60% 6.0 mph SW9.7 kmh SW 19.0 mph30.6 kmh 30.19 in1022.4 mb 0.00 in0.0 mm 0.00 in/hr0.0 mm/hr 0.00 in0.0 mm
04:50 PM 30.1°F-1.1°C 17.9°F-7.8°C 60% 5.0 mph WSW8.0 kmh WSW 12.0 mph19.3 kmh 30.20 in1022.7 mb 0.00 in0.0 mm 0.00 in/hr0.0 mm/hr 0.00 in0.0 mm
05:00 PM 29.9°F-1.2°C 17.7°F-7.9°C 60% 11.0 mph WSW17.7 kmh WSW 15.0 mph24.1 kmh 30.20 in1022.7 mb 0.00 in0.0 mm 0.00 in/hr0.0 mm/hr 0.00 in0.0 mm
05:10 PM 29.6°F-1.3°C 17.8°F-7.9°C 61% 7.0 mph WSW11.3 kmh WSW 14.0 mph22.5 kmh 30.20 in1022.7 mb 0.00 in0.0 mm 0.00 in/hr0.0 mm/hr 0.00 in0.0 mm
05:20 PM 29.4°F-1.4°C 17.6°F-8.0°C 61% 6.0 mph WSW9.7 kmh WSW 10.0 mph16.1 kmh 30.21 in1023.0 mb 0.00 in0.0 mm 0.00 in/hr0.0 mm/hr 0.00 in0.0 mm
05:30 PM 29.1°F-1.6°C 17.7°F-7.9°C 62% 3.0 mph WSW4.8 kmh WSW 9.0 mph14.5 kmh 30.21 in1023.0 mb 0.00 in0.0 mm 0.00 in/hr0.0 mm/hr 0.00 in0.0 mm
05:40 PM 28.8°F-1.8°C 17.8°F-7.9°C 63% 2.0 mph WSW3.2 kmh WSW 7.0 mph11.3 kmh 30.21 in1023.0 mb 0.00 in0.0 mm 0.00 in/hr0.0 mm/hr 0.00 in0.0 mm
05:50 PM 28.4°F-2.0°C 17.8°F-7.9°C 64% 4.0 mph WSW6.4 kmh WSW 9.0 mph14.5 kmh 30.22 in1023.4 mb 0.00 in0.0 mm 0.00 in/hr0.0 mm/hr 0.00 in0.0 mm
06:00 PM 28.1°F-2.2°C 17.5°F-8.1°C 64% 1.0 mph WSW1.6 kmh WSW 5.0 mph8.0 kmh 30.22 in1023.4 mb 0.00 in0.0 mm 0.00 in/hr0.0 mm/hr 0.00 in0.0 mm
06:10 PM 27.9°F-2.3°C 17.7°F-7.9°C 65% 1.0 mph SW1.6 kmh SW 5.0 mph8.0 kmh 30.23 in1023.7 mb 0.00 in0.0 mm 0.00 in/hr0.0 mm/hr 0.00 in0.0 mm
06:20 PM 27.7°F-2.4°C 17.5°F-8.1°C 65% Calm Calm 5.0 mph8.0 kmh 30.23 in1023.7 mb 0.00 in0.0 mm 0.00 in/hr0.0 mm/hr 0.00 in0.0 mm
06:30 PM 27.5°F-2.5°C 17.7°F-7.9°C 66% 2.0 mph WSW3.2 kmh WSW 5.0 mph8.0 kmh 30.23 in1023.7 mb 0.00 in0.0 mm 0.00 in/hr0.0 mm/hr 0.00 in0.0 mm
06:40 PM 27.2°F-2.7°C 17.4°F-8.1°C 66% Calm Calm 4.0 mph6.4 kmh 30.24 in1024.0 mb 0.00 in0.0 mm 0.00 in/hr0.0 mm/hr 0.00 in0.0 mm
06:50 PM 26.7°F-2.9°C 16.9°F-8.4°C 66% 1.0 mph WSW1.6 kmh WSW 4.0 mph6.4 kmh 30.24 in1024.0 mb 0.00 in0.0 mm 0.00 in/hr0.0 mm/hr 0.00 in0.0 mm
07:00 PM 26.3°F-3.2°C 17.2°F-8.2°C 68% Calm Calm 3.0 mph4.8 kmh 30.25 in1024.4 mb 0.00 in0.0 mm 0.00 in/hr0.0 mm/hr 0.00 in0.0 mm
07:10 PM 26.0°F-3.3°C 16.9°F-8.4°C 68% Calm Calm 1.0 mph1.6 kmh 30.25 in1024.4 mb 0.00 in0.0 mm 0.00 in/hr0.0 mm/hr 0.00 in0.0 mm
07:20 PM 25.6°F-3.6°C 16.9°F-8.4°C 69% Calm Calm 2.0 mph3.2 kmh 30.25 in1024.4 mb 0.00 in0.0 mm 0.00 in/hr0.0 mm/hr 0.00 in0.0 mm
07:30 PM 25.3°F-3.7°C 16.9°F-8.4°C 70% Calm Calm 1.0 mph1.6 kmh 30.25 in1024.4 mb 0.00 in0.0 mm 0.00 in/hr0.0 mm/hr 0.00 in0.0 mm
07:40 PM 25.1°F-3.8°C 16.7°F-8.5°C 70% Calm Calm 1.0 mph1.6 kmh 30.26 in1024.7 mb 0.00 in0.0 mm 0.00 in/hr0.0 mm/hr 0.00 in0.0 mm
07:50 PM 24.8°F-4.0°C 16.4°F-8.7°C 70% Calm Calm 2.0 mph3.2 kmh 30.26 in1024.7 mb 0.00 in0.0 mm 0.00 in/hr0.0 mm/hr 0.00 in0.0 mm
08:00 PM 24.6°F-4.1°C 16.6°F-8.6°C 71% Calm Calm 1.0 mph1.6 kmh 30.26 in1024.7 mb 0.00 in0.0 mm 0.00 in/hr0.0 mm/hr 0.00 in0.0 mm
08:10 PM 24.3°F-4.3°C 16.3°F-8.7°C 71% Calm Calm 2.0 mph3.2 kmh 30.26 in1024.7 mb 0.00 in0.0 mm 0.00 in/hr0.0 mm/hr 0.00 in0.0 mm
08:20 PM 23.9°F-4.5°C 16.2°F-8.8°C 72% 1.0 mph WSW1.6 kmh WSW 1.0 mph1.6 kmh 30.27 in1025.1 mb 0.00 in0.0 mm 0.00 in/hr0.0 mm/hr 0.00 in0.0 mm
08:30 PM 23.4°F-4.8°C 15.7°F-9.1°C 72% Calm Calm 3.0 mph4.8 kmh 30.27 in1025.1 mb 0.00 in0.0 mm 0.00 in/hr0.0 mm/hr 0.00 in0.0 mm
08:40 PM 23.2°F-4.9°C 15.8°F-9.0°C 73% 1.0 mph WSW1.6 kmh WSW 7.0 mph11.3 kmh 30.27 in1025.1 mb 0.00 in0.0 mm 0.00 in/hr0.0 mm/hr 0.00 in0.0 mm
08:50 PM 23.3°F-4.8°C 15.9°F-8.9°C 73% Calm Calm 2.0 mph3.2 kmh 30.28 in1025.4 mb 0.00 in0.0 mm 0.00 in/hr0.0 mm/hr 0.00 in0.0 mm
09:00 PM 22.9°F-5.1°C 15.6°F-9.1°C 73% Calm Calm -- 30.28 in1025.4 mb 0.00 in0.0 mm 0.00 in/hr0.0 mm/hr 0.00 in0.0 mm
09:10 PM 22.7°F-5.2°C 15.7°F-9.1°C 74% Calm Calm 2.0 mph3.2 kmh 30.29 in1025.7 mb 0.00 in0.0 mm 0.00 in/hr0.0 mm/hr 0.00 in0.0 mm
09:20 PM 22.4°F-5.3°C 15.4°F-9.2°C 74% Calm Calm 1.0 mph1.6 kmh 30.29 in1025.7 mb 0.00 in0.0 mm 0.00 in/hr0.0 mm/hr 0.00 in0.0 mm
09:30 PM 22.2°F-5.4°C 15.2°F-9.3°C 74% Calm Calm 2.0 mph3.2 kmh 30.29 in1025.7 mb 0.00 in0.0 mm 0.00 in/hr0.0 mm/hr 0.00 in0.0 mm
09:40 PM 22.0°F-5.6°C 15.3°F-9.3°C 75% 2.0 mph WSW3.2 kmh WSW 2.0 mph3.2 kmh 30.29 in1025.7 mb 0.00 in0.0 mm 0.00 in/hr0.0 mm/hr 0.00 in0.0 mm
09:50 PM 21.9°F-5.6°C 15.2°F-9.3°C 75% Calm Calm 4.0 mph6.4 kmh 30.30 in1026.1 mb 0.00 in0.0 mm 0.00 in/hr0.0 mm/hr 0.00 in0.0 mm
10:00 PM 21.9°F-5.6°C 15.5°F-9.2°C 76% Calm Calm 1.0 mph1.6 kmh 30.30 in1026.1 mb 0.00 in0.0 mm 0.00 in/hr0.0 mm/hr 0.00 in0.0 mm
10:10 PM 22.1°F-5.5°C 15.7°F-9.1°C 76% Calm Calm 2.0 mph3.2 kmh 30.30 in1026.1 mb 0.00 in0.0 mm 0.00 in/hr0.0 mm/hr 0.00 in0.0 mm
10:20 PM 22.2°F-5.4°C 15.5°F-9.2°C 75% Calm Calm 2.0 mph3.2 kmh 30.30 in1026.1 mb 0.00 in0.0 mm 0.00 in/hr0.0 mm/hr 0.00 in0.0 mm
10:30 PM 22.4°F-5.3°C 15.7°F-9.1°C 75% Calm Calm 2.0 mph3.2 kmh 30.30 in1026.1 mb 0.00 in0.0 mm 0.00 in/hr0.0 mm/hr 0.00 in0.0 mm
10:41 PM 22.4°F-5.3°C 15.7°F-9.1°C 75% 1.0 mph WSW1.6 kmh WSW 1.0 mph1.6 kmh 30.31 in1026.4 mb 0.00 in0.0 mm 0.00 in/hr0.0 mm/hr 0.00 in0.0 mm
10:50 PM 22.4°F-5.3°C 15.7°F-9.1°C 75% Calm Calm 2.0 mph3.2 kmh 30.31 in1026.4 mb 0.00 in0.0 mm 0.00 in/hr0.0 mm/hr 0.00 in0.0 mm
11:00 PM 22.3°F-5.4°C 15.9°F-8.9°C 76% Calm Calm 2.0 mph3.2 kmh 30.31 in1026.4 mb 0.00 in0.0 mm 0.00 in/hr0.0 mm/hr 0.00 in0.0 mm
11:10 PM 22.1°F-5.5°C 15.7°F-9.1°C 76% Calm Calm 2.0 mph3.2 kmh 30.32 in1026.8 mb 0.00 in0.0 mm 0.00 in/hr0.0 mm/hr 0.00 in0.0 mm
11:20 PM 21.7°F-5.7°C 15.6°F-9.1°C 77% Calm Calm 3.0 mph4.8 kmh 30.32 in1026.8 mb 0.00 in0.0 mm 0.00 in/hr0.0 mm/hr 0.00 in0.0 mm
11:30 PM 21.6°F-5.8°C 15.5°F-9.2°C 77% Calm Calm 2.0 mph3.2 kmh 30.32 in1026.8 mb 0.00 in0.0 mm 0.00 in/hr0.0 mm/hr 0.00 in0.0 mm
11:40 PM 21.7°F-5.7°C 15.9°F-8.9°C 78% 1.0 mph WSW1.6 kmh WSW 7.0 mph11.3 kmh 30.33 in1027.1 mb 0.00 in0.0 mm 0.00 in/hr0.0 mm/hr 0.00 in0.0 mm
11:50 PM 21.8°F-5.7°C 16.0°F-8.9°C 78% Calm Calm 3.0 mph4.8 kmh 30.33 in1027.1 mb 0.00 in0.0 mm 0.00 in/hr0.0 mm/hr 0.00 in0.0 mm